createdAt,value
2023-03-12T00:01:19.496Z,9.00
2023-03-12T00:03:47.360Z,9.60
2023-03-12T00:06:14.575Z,10.10
2023-03-12T00:08:41.784Z,8.20
2023-03-12T00:11:10.738Z,9.30
2023-03-12T00:13:38.116Z,9.10
2023-03-12T00:16:10.442Z,9.00
2023-03-12T00:18:37.553Z,7.50
2023-03-12T00:21:05.753Z,7.80
2023-03-12T00:23:32.817Z,9.20
2023-03-12T00:26:04.966Z,9.70
2023-03-12T00:28:31.817Z,9.20
2023-03-12T00:30:58.637Z,8.60
2023-03-12T00:33:26.095Z,10.20
2023-03-12T00:35:53.927Z,8.50
2023-03-12T00:38:20.504Z,9.30
2023-03-12T00:40:47.332Z,8.50
2023-03-12T00:43:14.903Z,10.50
2023-03-12T00:45:41.422Z,8.70
2023-03-12T00:48:07.889Z,9.10
2023-03-12T00:50:34.316Z,9.10
2023-03-12T00:53:00.873Z,8.60
2023-03-12T00:55:27.594Z,8.80
2023-03-12T00:57:54.262Z,9.60
2023-03-12T01:00:21.369Z,11.50
2023-03-12T01:02:48.186Z,9.80
2023-03-12T01:05:15.548Z,9.50
2023-03-12T01:07:42.717Z,9.80
2023-03-12T01:10:11.871Z,9.40
2023-03-12T01:12:38.586Z,10.20
2023-03-12T01:15:05.828Z,8.90
2023-03-12T01:17:32.274Z,9.90
2023-03-12T01:19:58.833Z,9.30
2023-03-12T01:22:25.528Z,10.10
2023-03-12T01:24:51.973Z,10.60
2023-03-12T01:27:18.505Z,10.40
2023-03-12T01:29:45.330Z,10.20
2023-03-12T01:32:11.863Z,10.10
2023-03-12T01:34:38.333Z,10.20
2023-03-12T01:37:05.157Z,10.20
2023-03-12T01:39:31.625Z,9.60
2023-03-12T01:41:58.205Z,9.50
2023-03-12T01:44:24.779Z,9.50
2023-03-12T01:46:51.203Z,10.30
2023-03-12T01:49:33.345Z,9.30
2023-03-12T01:52:04.789Z,10.00
2023-03-12T01:54:37.551Z,9.40
2023-03-12T01:57:06.376Z,9.90
2023-03-12T01:59:39.142Z,9.50
2023-03-12T02:02:06.955Z,9.30
2023-03-12T02:04:34.872Z,9.20
2023-03-12T02:07:08.703Z,10.20
2023-03-12T02:09:39.894Z,8.30
2023-03-12T02:12:07.913Z,8.90
2023-03-12T02:14:34.990Z,9.00
2023-03-12T02:17:02.511Z,8.30
2023-03-12T02:20:12.813Z,8.60
2023-03-12T02:22:42.504Z,9.10
2023-03-12T02:25:36.709Z,9.80
2023-03-12T02:28:07.551Z,10.00
2023-03-12T02:30:34.300Z,7.40
2023-03-12T02:33:05.506Z,9.10
2023-03-12T02:35:32.408Z,9.50
2023-03-12T02:37:59.133Z,10.90
2023-03-12T02:40:39.290Z,8.80
2023-03-12T02:43:07.775Z,9.20
2023-03-12T02:45:36.985Z,8.50
2023-03-12T02:48:08.214Z,9.60
2023-03-12T02:50:34.645Z,8.10
2023-03-12T02:53:01.079Z,9.60
2023-03-12T02:55:27.624Z,9.40
2023-03-12T02:57:54.097Z,9.20
2023-03-12T03:00:21.099Z,10.10
2023-03-12T03:02:47.625Z,10.60
2023-03-12T03:05:14.241Z,9.80
2023-03-12T03:07:40.943Z,10.20
2023-03-12T03:10:08.516Z,10.10
2023-03-12T03:12:36.747Z,10.00
2023-03-12T03:15:05.085Z,10.60
2023-03-12T03:17:31.945Z,10.40
2023-03-12T03:19:58.591Z,9.70
2023-03-12T03:22:25.240Z,11.10
2023-03-12T03:24:53.344Z,11.10
2023-03-12T03:27:20.096Z,11.90
2023-03-12T03:29:46.821Z,12.20
2023-03-12T03:32:13.359Z,10.70
2023-03-12T03:34:40.040Z,9.70
2023-03-12T03:37:06.717Z,9.00
2023-03-12T03:39:33.298Z,9.10
2023-03-12T03:42:00.118Z,10.20
2023-03-12T03:44:26.604Z,9.40
2023-03-12T03:46:53.560Z,10.20
2023-03-12T03:49:20.099Z,10.50
2023-03-12T03:51:46.925Z,10.40
2023-03-12T03:54:13.713Z,10.70
2023-03-12T03:56:40.983Z,11.00
2023-03-12T03:59:07.511Z,11.40
2023-03-12T04:01:34.063Z,10.30
2023-03-12T04:04:00.819Z,11.30
2023-03-12T04:06:27.374Z,10.90
2023-03-12T04:08:53.905Z,10.50
2023-03-12T04:11:21.986Z,10.40
2023-03-12T04:13:49.637Z,11.90
2023-03-12T04:16:17.003Z,11.40
2023-03-12T04:18:44.558Z,10.90
2023-03-12T04:21:13.357Z,10.70
2023-03-12T04:23:40.259Z,11.70
2023-03-12T04:26:07.838Z,12.50
2023-03-12T04:28:35.281Z,12.40
2023-03-12T04:31:04.645Z,13.00
2023-03-12T04:33:34.753Z,12.60
2023-03-12T04:36:01.527Z,15.70
2023-03-12T04:38:28.671Z,15.80
2023-03-12T04:41:07.492Z,15.50
2023-03-12T04:43:34.757Z,14.10
2023-03-12T04:46:02.086Z,12.80
2023-03-12T04:48:28.871Z,13.50
2023-03-12T04:50:55.712Z,14.80
2023-03-12T04:53:22.777Z,16.20
2023-03-12T04:55:49.311Z,16.00
2023-03-12T04:58:16.722Z,17.00
2023-03-12T05:00:43.502Z,17.20
2023-03-12T05:03:10.094Z,17.20
2023-03-12T05:05:36.768Z,14.00
2023-03-12T05:08:04.729Z,14.40
2023-03-12T05:10:31.976Z,15.10
2023-03-12T05:12:58.836Z,11.90
2023-03-12T05:15:25.994Z,12.70
2023-03-12T05:17:54.767Z,10.90
2023-03-12T05:20:21.504Z,10.60
2023-03-12T05:22:48.081Z,8.70
2023-03-12T05:25:14.627Z,10.80
2023-03-12T05:27:41.085Z,11.30
2023-03-12T05:30:08.233Z,10.00
2023-03-12T05:32:34.743Z,8.80
2023-03-12T05:35:01.421Z,8.80
2023-03-12T05:37:28.274Z,7.50
2023-03-12T05:39:54.922Z,7.70
2023-03-12T05:42:21.518Z,7.40
2023-03-12T05:44:47.976Z,6.10
2023-03-12T05:47:14.392Z,11.10
2023-03-12T05:49:40.871Z,10.70
2023-03-12T05:52:07.486Z,10.60
2023-03-12T05:54:34.287Z,8.90
2023-03-12T05:57:00.809Z,8.30
2023-03-12T05:59:27.376Z,5.60
2023-03-12T06:01:53.978Z,5.40
2023-03-12T06:04:20.529Z,5.10
2023-03-12T06:06:47.940Z,4.90
2023-03-12T06:09:14.366Z,5.00
2023-03-12T06:11:40.919Z,4.40
2023-03-12T06:14:07.334Z,4.90
2023-03-12T06:16:33.784Z,4.70
2023-03-12T06:19:02.389Z,5.10
2023-03-12T06:21:32.120Z,5.20
2023-03-12T06:23:59.377Z,5.20
2023-03-12T06:26:26.738Z,4.80
2023-03-12T06:28:54.426Z,4.80
2023-03-12T06:31:22.410Z,5.40
2023-03-12T06:33:49.002Z,4.80
2023-03-12T06:36:15.556Z,4.30
2023-03-12T06:38:41.992Z,3.70
2023-03-12T06:41:15.113Z,4.10
2023-03-12T06:43:42.751Z,3.20
2023-03-12T06:46:13.166Z,3.50
2023-03-12T06:48:39.778Z,3.20
2023-03-12T06:51:09.978Z,3.50
2023-03-12T06:53:36.711Z,3.10
2023-03-12T06:56:04.334Z,3.60
2023-03-12T06:58:31.396Z,3.50
2023-03-12T07:00:58.130Z,4.30
2023-03-12T07:03:25.398Z,4.00
2023-03-12T07:05:52.148Z,3.60
2023-03-12T07:08:18.804Z,4.30
2023-03-12T07:10:46.574Z,4.30
2023-03-12T07:13:13.714Z,4.40
2023-03-12T07:15:40.580Z,3.50
2023-03-12T07:18:12.048Z,4.00
2023-03-12T07:23:09.354Z,4.30
2023-03-12T07:25:38.011Z,3.30
2023-03-12T07:28:04.675Z,3.60
2023-03-12T07:30:31.360Z,4.30
2023-03-12T07:32:58.147Z,3.90
2023-03-12T07:35:24.828Z,3.10
2023-03-12T07:37:51.324Z,3.90
2023-03-12T07:40:18.043Z,4.20
2023-03-12T07:42:44.576Z,4.20
2023-03-12T07:45:11.541Z,3.40
2023-03-12T07:47:38.247Z,4.00
2023-03-12T07:50:05.130Z,4.20
2023-03-12T07:52:31.882Z,4.10
2023-03-12T07:54:58.667Z,3.10
2023-03-12T07:57:25.322Z,2.50
2023-03-12T07:59:52.450Z,2.80
2023-03-12T08:02:19.218Z,2.00
2023-03-12T08:04:46.936Z,1.90
2023-03-12T08:07:14.264Z,2.70
2023-03-12T08:09:41.553Z,2.00
2023-03-12T08:12:08.900Z,1.70
2023-03-12T08:14:36.397Z,2.20
2023-03-12T08:17:02.991Z,2.60
2023-03-12T08:19:29.422Z,2.60
2023-03-12T08:21:55.824Z,2.60
2023-03-12T08:24:22.424Z,2.60
2023-03-12T08:26:48.974Z,2.00
2023-03-12T08:29:17.371Z,1.40
2023-03-12T08:32:01.562Z,2.20
2023-03-12T08:34:30.623Z,2.50
2023-03-12T08:36:57.592Z,2.00
2023-03-12T08:39:24.171Z,2.30
2023-03-12T08:41:50.637Z,2.70
2023-03-12T08:44:17.203Z,2.10
2023-03-12T08:46:43.603Z,1.90
2023-03-12T08:49:13.466Z,1.70
2023-03-12T08:51:40.114Z,2.10
2023-03-12T08:54:06.559Z,2.00
2023-03-12T08:56:33.298Z,1.60
2023-03-12T08:58:59.946Z,1.50
2023-03-12T09:01:26.485Z,2.30
2023-03-12T09:03:52.944Z,2.40
2023-03-12T09:06:19.730Z,2.30
2023-03-12T09:08:46.931Z,2.00
2023-03-12T09:11:15.572Z,1.90
2023-03-12T09:14:03.953Z,1.60
2023-03-12T09:16:29.743Z,1.80
2023-03-12T09:18:56.366Z,1.80
2023-03-12T09:21:22.920Z,1.70
2023-03-12T09:23:49.336Z,1.40
2023-03-12T09:26:15.916Z,1.70
2023-03-12T09:28:42.446Z,1.30
2023-03-12T09:31:09.062Z,1.40
2023-03-12T09:33:35.532Z,1.40
2023-03-12T09:36:02.863Z,1.90
2023-03-12T09:38:30.358Z,1.30
2023-03-12T09:40:56.895Z,1.60
2023-03-12T09:43:31.701Z,2.30
2023-03-12T09:45:59.812Z,1.90
2023-03-12T09:48:32.579Z,1.40
2023-03-12T09:51:02.885Z,1.50
2023-03-12T09:53:40.023Z,2.00
2023-03-12T09:56:14.568Z,1.90
2023-03-12T09:58:41.385Z,1.80
2023-03-12T10:01:18.855Z,2.30
2023-03-12T10:03:51.592Z,1.70
2023-03-12T10:06:35.397Z,1.40
2023-03-12T10:09:20.832Z,1.50
2023-03-12T10:12:09.698Z,1.60
2023-03-12T10:14:48.513Z,1.20
2023-03-12T10:17:15.189Z,1.10
2023-03-12T10:19:56.066Z,1.10
2023-03-12T10:22:49.684Z,1.50
2023-03-12T10:25:19.092Z,1.70
2023-03-12T10:27:50.405Z,4.20
2023-03-12T10:33:01.135Z,1.20
2023-03-12T10:35:29.293Z,3.40
2023-03-12T10:38:04.569Z,1.00
2023-03-12T10:40:36.701Z,1.30
2023-03-12T10:43:04.699Z,1.50
2023-03-12T10:45:34.731Z,1.20
2023-03-12T10:48:07.680Z,2.70
2023-03-12T10:50:38.096Z,1.70
2023-03-12T10:53:22.057Z,2.30
2023-03-12T10:56:01.580Z,1.70
2023-03-12T10:58:33.499Z,2.90
2023-03-12T11:01:02.017Z,2.70
2023-03-12T11:03:29.771Z,1.60
2023-03-12T11:05:59.667Z,2.80
2023-03-12T11:08:29.526Z,1.90
2023-03-12T11:10:58.513Z,2.00
2023-03-12T11:13:29.561Z,2.20
2023-03-12T11:15:58.868Z,2.40
2023-03-12T11:18:35.575Z,1.70
2023-03-12T11:21:11.203Z,1.90
2023-03-12T11:23:41.235Z,1.90
2023-03-12T11:26:23.327Z,1.70
2023-03-12T11:29:01.314Z,2.10
2023-03-12T11:31:37.726Z,1.90
2023-03-12T11:34:27.790Z,2.30
2023-03-12T11:37:19.220Z,2.00
2023-03-12T11:40:17.408Z,2.20
2023-03-12T11:43:09.050Z,2.00
2023-03-12T11:45:54.904Z,3.50
2023-03-12T11:48:42.376Z,1.20
2023-03-12T11:51:17.969Z,1.50
2023-03-12T11:53:53.703Z,1.60
2023-03-12T11:56:33.909Z,1.10
2023-03-12T11:59:23.061Z,1.50
2023-03-12T12:02:11.151Z,1.60
2023-03-12T12:05:15.027Z,1.50
2023-03-12T12:08:03.084Z,2.10
2023-03-12T12:10:54.415Z,1.90
2023-03-12T12:13:27.315Z,2.60
2023-03-12T12:16:21.661Z,2.10
2023-03-12T12:18:57.684Z,3.10
2023-03-12T12:21:49.427Z,4.50
2023-03-12T12:24:28.430Z,2.60
2023-03-12T12:27:15.132Z,2.10
2023-03-12T12:30:09.948Z,3.90
2023-03-12T12:32:42.854Z,1.70
2023-03-12T12:35:41.543Z,2.10
2023-03-12T12:38:23.290Z,2.30
2023-03-12T12:40:49.723Z,2.90
2023-03-12T12:43:39.414Z,1.50
2023-03-12T12:46:16.198Z,1.70
2023-03-12T12:48:48.685Z,1.70
2023-03-12T12:51:19.898Z,2.20
2023-03-12T12:53:46.368Z,1.40
2023-03-12T12:56:20.076Z,1.60
2023-03-12T12:59:25.087Z,1.50
2023-03-12T13:01:55.374Z,1.50
2023-03-12T13:04:27.046Z,1.90
2023-03-12T13:07:00.850Z,1.00
2023-03-12T13:09:38.346Z,1.70
2023-03-12T13:12:33.584Z,2.30
2023-03-12T13:15:02.459Z,2.30
2023-03-12T13:17:30.469Z,1.60
2023-03-12T13:20:11.780Z,1.80
2023-03-12T13:22:53.665Z,1.70
2023-03-12T13:25:39.878Z,1.50
2023-03-12T13:28:30.399Z,1.70
2023-03-12T13:30:59.537Z,1.20
2023-03-12T13:33:46.713Z,1.70
2023-03-12T13:36:16.127Z,1.20
2023-03-12T13:39:06.029Z,1.30
2023-03-12T13:41:46.199Z,1.10
2023-03-12T13:44:32.293Z,1.90
2023-03-12T13:47:10.953Z,1.70
2023-03-12T13:49:56.504Z,1.60
2023-03-12T13:52:26.690Z,1.30
2023-03-12T13:55:14.562Z,1.00
2023-03-12T13:57:45.651Z,2.80
2023-03-12T14:00:21.395Z,1.10
2023-03-12T14:02:59.841Z,1.20
2023-03-12T14:05:28.392Z,1.30
2023-03-12T14:08:03.877Z,1.20
2023-03-12T14:10:43.960Z,1.50
2023-03-12T14:13:25.819Z,1.20
2023-03-12T14:16:16.262Z,1.40
2023-03-12T14:18:45.670Z,4.20
2023-03-12T14:21:16.473Z,3.00
2023-03-12T14:24:05.662Z,1.70
2023-03-12T14:26:35.505Z,1.70
2023-03-12T14:29:11.008Z,1.30
2023-03-12T14:31:38.657Z,1.50
2023-03-12T14:34:20.789Z,1.40
2023-03-12T14:37:15.606Z,1.60
2023-03-12T14:39:50.831Z,1.50
2023-03-12T14:42:36.697Z,1.70
2023-03-12T14:45:06.175Z,1.30
2023-03-12T14:47:40.536Z,1.10
2023-03-12T14:50:07.722Z,1.70
2023-03-12T14:52:34.260Z,1.20
2023-03-12T14:55:04.773Z,1.60
2023-03-12T14:57:31.353Z,1.60
2023-03-12T15:00:00.449Z,1.60
2023-03-12T15:02:31.651Z,1.20
2023-03-12T15:05:01.381Z,1.50
2023-03-12T15:07:33.055Z,1.10
2023-03-12T15:10:00.766Z,1.70
2023-03-12T15:12:34.104Z,2.20
2023-03-12T15:15:06.485Z,2.20
2023-03-12T15:17:34.527Z,1.80
2023-03-12T15:20:05.055Z,1.90
2023-03-12T15:22:32.769Z,1.40
2023-03-12T15:25:15.488Z,1.10
2023-03-12T15:27:42.037Z,1.70
2023-03-12T15:30:26.514Z,1.40
2023-03-12T15:33:03.973Z,2.20
2023-03-12T15:35:31.215Z,4.00
2023-03-12T15:37:58.127Z,2.00
2023-03-12T15:40:30.688Z,1.30
2023-03-12T15:42:59.664Z,2.30
2023-03-12T15:45:36.049Z,2.30
2023-03-12T15:48:05.836Z,1.60
2023-03-12T15:50:44.034Z,1.80
2023-03-12T15:53:13.889Z,2.20
2023-03-12T15:55:41.259Z,2.80
2023-03-12T15:58:26.419Z,3.80
2023-03-12T16:00:53.365Z,6.90
2023-03-12T16:03:21.960Z,3.60
2023-03-12T16:05:51.574Z,2.70
2023-03-12T16:08:22.627Z,2.20
2023-03-12T16:10:50.312Z,2.00
2023-03-12T16:13:19.038Z,2.50
2023-03-12T16:15:47.814Z,1.90
2023-03-12T16:18:17.608Z,2.20
2023-03-12T16:20:45.434Z,3.10
2023-03-12T16:23:13.137Z,2.60
2023-03-12T16:25:43.522Z,2.50
2023-03-12T16:28:14.592Z,3.60
2023-03-12T16:30:41.192Z,3.80
2023-03-12T16:33:09.485Z,3.80
2023-03-12T16:35:36.361Z,4.90
2023-03-12T16:38:03.693Z,4.80
2023-03-12T16:40:35.453Z,8.20
2023-03-12T16:43:04.148Z,5.70
2023-03-12T16:45:33.940Z,8.90
2023-03-12T16:48:05.017Z,9.40
2023-03-12T16:50:31.798Z,10.90
2023-03-12T16:52:58.617Z,13.30
2023-03-12T16:55:30.488Z,14.00
2023-03-12T16:58:01.617Z,22.10
2023-03-12T17:00:31.047Z,18.70
2023-03-12T17:02:59.023Z,29.60
2023-03-12T17:05:27.789Z,44.80
2023-03-12T17:07:55.189Z,59.60
2023-03-12T17:10:23.656Z,34.80
2023-03-12T17:12:50.879Z,38.80
2023-03-12T17:15:21.304Z,29.60
2023-03-12T17:17:49.252Z,31.90
2023-03-12T17:20:19.097Z,31.40
2023-03-12T17:22:46.433Z,31.10
2023-03-12T17:25:26.281Z,30.20
2023-03-12T17:27:53.541Z,26.20
2023-03-12T17:30:20.508Z,23.60
2023-03-12T17:32:47.027Z,25.70
2023-03-12T17:35:14.242Z,30.80
2023-03-12T17:37:40.863Z,39.50
2023-03-12T17:40:08.563Z,34.40
2023-03-12T17:42:36.023Z,37.00
2023-03-12T17:45:07.339Z,35.90
2023-03-12T17:47:34.000Z,37.40
2023-03-12T17:50:00.555Z,40.20
2023-03-12T17:52:27.076Z,45.40
2023-03-12T17:54:53.778Z,54.60
2023-03-12T17:57:20.298Z,44.70
2023-03-12T17:59:46.731Z,58.30
2023-03-12T18:02:14.125Z,39.50
2023-03-12T18:04:41.029Z,43.50
2023-03-12T18:07:07.894Z,59.20
2023-03-12T18:09:34.353Z,109.30
2023-03-12T18:12:01.016Z,177.60
2023-03-12T18:14:28.446Z,126.50
2023-03-12T18:16:54.871Z,97.30
2023-03-12T18:19:21.585Z,92.70
2023-03-12T18:21:48.181Z,88.90
2023-03-12T18:24:15.130Z,84.10
2023-03-12T18:26:41.979Z,89.80
2023-03-12T18:29:08.522Z,89.30
2023-03-12T18:31:34.965Z,93.70
2023-03-12T18:34:01.577Z,77.20
2023-03-12T18:36:28.261Z,79.20
2023-03-12T18:38:54.919Z,76.20
2023-03-12T18:41:21.559Z,66.80
2023-03-12T18:43:48.229Z,59.50
2023-03-12T18:46:14.734Z,56.80
2023-03-12T18:48:43.971Z,80.10
2023-03-12T18:51:11.036Z,71.80
2023-03-12T18:53:37.513Z,64.00
2023-03-12T18:56:04.637Z,60.10
2023-03-12T18:58:31.058Z,66.20
2023-03-12T19:00:58.562Z,72.40
2023-03-12T19:03:26.314Z,68.80
2023-03-12T19:06:04.737Z,68.60
2023-03-12T19:08:31.698Z,69.70
2023-03-12T19:10:58.369Z,98.20
2023-03-12T19:13:25.411Z,72.20
2023-03-12T19:15:58.636Z,69.10
2023-03-12T19:18:25.342Z,64.70
2023-03-12T19:20:51.796Z,53.20
2023-03-12T19:23:18.572Z,51.60
2023-03-12T19:25:45.292Z,67.00
2023-03-12T19:28:11.929Z,55.60
2023-03-12T19:30:38.488Z,54.90
2023-03-12T19:33:05.144Z,54.90
2023-03-12T19:35:32.060Z,55.10
2023-03-12T19:37:58.738Z,50.80
2023-03-12T19:40:26.072Z,46.10
2023-03-12T19:42:52.543Z,55.20
2023-03-12T19:45:19.091Z,54.40
2023-03-12T19:47:45.718Z,55.20
2023-03-12T19:50:12.585Z,56.20
2023-03-12T19:52:39.229Z,56.30
2023-03-12T19:55:05.983Z,57.30
2023-03-12T19:57:33.988Z,97.10
2023-03-12T20:00:00.711Z,90.20
2023-03-12T20:02:27.545Z,73.60
2023-03-12T20:04:54.475Z,61.70
2023-03-12T20:07:21.060Z,63.90
2023-03-12T20:09:47.531Z,52.70
2023-03-12T20:12:14.059Z,47.00
2023-03-12T20:14:42.760Z,39.70
2023-03-12T20:17:10.031Z,41.30
2023-03-12T20:19:36.665Z,40.90
2023-03-12T20:22:03.392Z,44.10
2023-03-12T20:24:30.127Z,40.40
2023-03-12T20:26:56.889Z,59.60
2023-03-12T20:29:24.048Z,64.60
2023-03-12T20:31:51.019Z,85.20
2023-03-12T20:34:19.087Z,104.30
2023-03-12T20:36:45.632Z,64.60
2023-03-12T20:39:12.201Z,57.50
2023-03-12T20:41:39.150Z,56.70
2023-03-12T20:44:05.607Z,55.80
2023-03-12T20:46:32.344Z,51.90
2023-03-12T20:48:58.981Z,51.30
2023-03-12T20:51:25.775Z,52.60
2023-03-12T20:53:52.478Z,54.20
2023-03-12T20:56:19.029Z,49.40
2023-03-12T20:58:45.549Z,53.20
2023-03-12T21:01:12.104Z,54.90
2023-03-12T21:03:38.584Z,63.80
2023-03-12T21:06:05.719Z,79.20
2023-03-12T21:08:36.496Z,80.10
2023-03-12T21:11:07.418Z,74.80
2023-03-12T21:13:34.473Z,67.50
2023-03-12T21:16:00.906Z,47.40
2023-03-12T21:18:27.561Z,79.30
2023-03-12T21:20:54.453Z,74.50
2023-03-12T21:23:21.493Z,64.20
2023-03-12T21:25:48.124Z,54.30
2023-03-12T21:28:15.100Z,45.40
2023-03-12T21:30:41.544Z,47.40
2023-03-12T21:33:08.154Z,53.50
2023-03-12T21:35:34.628Z,54.30
2023-03-12T21:38:01.234Z,75.20
2023-03-12T21:40:27.989Z,64.20
2023-03-12T21:42:54.529Z,67.60
2023-03-12T21:45:20.933Z,52.90
2023-03-12T21:47:47.437Z,46.00
2023-03-12T21:50:13.967Z,46.70
2023-03-12T21:52:43.368Z,43.60
2023-03-12T21:55:11.048Z,45.10
2023-03-12T21:57:37.595Z,54.50
2023-03-12T22:00:05.150Z,48.30
2023-03-12T22:02:32.176Z,49.30
2023-03-12T22:04:59.597Z,43.90
2023-03-12T22:07:26.133Z,46.00
2023-03-12T22:09:52.732Z,41.30
2023-03-12T22:12:19.153Z,45.10
2023-03-12T22:14:45.722Z,45.60
2023-03-12T22:17:12.202Z,47.00
2023-03-12T22:19:40.379Z,44.90
2023-03-12T22:22:09.097Z,47.60
2023-03-12T22:24:35.588Z,49.30
2023-03-12T22:27:02.210Z,46.80
2023-03-12T22:29:29.250Z,45.40
2023-03-12T22:31:55.993Z,46.70
2023-03-12T22:34:22.527Z,43.60
2023-03-12T22:36:49.078Z,43.20
2023-03-12T22:39:18.607Z,45.30
2023-03-12T22:41:49.450Z,43.10
2023-03-12T22:44:16.271Z,31.70
2023-03-12T22:46:42.958Z,49.40
2023-03-12T22:49:09.528Z,51.40
2023-03-12T22:51:36.029Z,52.60
2023-03-12T22:54:02.626Z,56.20
2023-03-12T22:56:29.442Z,53.10
2023-03-12T22:58:55.972Z,55.10
2023-03-12T23:01:23.745Z,56.70
2023-03-12T23:03:50.713Z,58.50
2023-03-12T23:06:26.303Z,58.60
2023-03-12T23:08:54.138Z,52.50
2023-03-12T23:11:20.829Z,47.20
2023-03-12T23:13:47.791Z,51.80
2023-03-12T23:16:18.189Z,47.50
2023-03-12T23:18:45.739Z,48.80
2023-03-12T23:21:21.188Z,50.10
2023-03-12T23:23:48.436Z,51.20
2023-03-12T23:26:18.346Z,47.70
2023-03-12T23:28:44.996Z,49.00
2023-03-12T23:31:11.550Z,45.80
2023-03-12T23:33:38.305Z,43.30
2023-03-12T23:36:14.494Z,39.00
2023-03-12T23:38:41.005Z,37.60
2023-03-12T23:41:15.172Z,34.60
2023-03-12T23:43:42.129Z,34.60
2023-03-12T23:46:10.468Z,31.80
2023-03-12T23:48:38.597Z,31.10
2023-03-12T23:51:16.113Z,31.60
2023-03-12T23:53:44.841Z,34.30
2023-03-12T23:56:17.664Z,33.50
2023-03-12T23:58:44.539Z,29.90
